Time;durP1;ratioP1;P1;durP2;ratioP2;P2;SDS_P1;SDS_P2;PMS_P1;PMS_P2;Temp;Humidity;BMP_temperature;BMP_pressure;BME280_temperature;BME280_humidity;BME280_pressure;Samples;Min_cycle;Max_cycle;Signal;HPM_P1;HPM_P2
2023/02/05 00:00:18;;;;;;;17.65;9.98;;;;;;;7.10;93.77;103951.69;6103671;19;20034;-78
2023/02/05 00:02:23;;;;;;;22.30;10.02;;;;;;;7.11;93.84;103937.78;6104110;19;20010;-80
2023/02/05 00:04:29;;;;;;;22.63;10.50;;;;;;;7.14;93.75;103934.34;6104768;19;20416;-78
2023/02/05 00:06:41;;;;;;;22.70;10.98;;;;;;;7.10;93.61;103929.88;6098536;19;20021;-79
2023/02/05 00:08:49;;;;;;;22.95;11.40;;;;;;;7.09;93.70;103929.00;6102567;19;20566;-79
2023/02/05 00:10:55;;;;;;;20.05;10.52;;;;;;;7.08;93.53;103928.97;6094602;19;20014;-79
2023/02/05 00:13:01;;;;;;;20.05;10.00;;;;;;;7.08;93.63;103923.72;6077104;19;20022;-80
2023/02/05 00:15:10;;;;;;;23.63;11.43;;;;;;;7.10;93.44;103920.31;6097711;19;20011;-80
2023/02/05 00:17:21;;;;;;;25.48;11.15;;;;;;;7.10;93.48;103924.66;6101933;19;20015;-80
2023/02/05 00:19:26;;;;;;;22.30;9.95;;;;;;;7.10;93.48;103935.13;6101531;19;20484;-78
2023/02/05 00:21:31;;;;;;;21.45;9.95;;;;;;;7.06;93.35;103923.72;6103354;19;20036;-78
2023/02/05 00:23:43;;;;;;;24.73;11.40;;;;;;;7.08;93.25;103913.25;6052451;19;20020;-78
2023/02/05 00:25:53;;;;;;;22.17;10.23;;;;;;;7.08;93.18;103921.13;6101867;19;20014;-78
2023/02/05 00:28:02;;;;;;;18.83;9.75;;;;;;;7.03;93.26;103931.47;6101550;19;22187;-77
2023/02/05 00:30:12;;;;;;;19.42;9.60;;;;;;;7.04;93.29;103934.13;6105349;19;20038;-78
2023/02/05 00:32:20;;;;;;;19.50;9.10;;;;;;;7.00;93.06;103919.22;6080470;19;20555;-79
2023/02/05 00:34:25;;;;;;;18.10;10.13;;;;;;;6.99;92.88;103927.00;6097439;19;20082;-79
2023/02/05 00:36:32;;;;;;;20.08;9.70;;;;;;;6.98;92.44;103931.38;6099649;19;20020;-78
2023/02/05 00:38:44;;;;;;;17.73;8.10;;;;;;;6.97;92.67;103929.56;6104510;19;20385;-78
2023/02/05 00:40:52;;;;;;;17.92;7.63;;;;;;;6.96;92.16;103938.28;6099378;19;20533;-80
2023/02/05 00:42:59;;;;;;;17.85;8.23;;;;;;;6.94;92.44;103934.75;6082766;19;20488;-79
2023/02/05 00:45:04;;;;;;;17.02;8.10;;;;;;;6.90;92.12;103930.31;6100183;19;20536;-79
2023/02/05 00:47:09;;;;;;;16.10;8.40;;;;;;;6.96;92.05;103943.50;6098802;19;20081;-79
2023/02/05 00:49:14;;;;;;;20.02;7.15;;;;;;;6.95;91.81;103940.84;6060049;19;20023;-79
2023/02/05 00:51:19;;;;;;;16.77;8.10;;;;;;;6.92;91.53;103936.44;6101449;19;20074;-78
2023/02/05 00:53:29;;;;;;;13.70;6.57;;;;;;;6.92;91.30;103946.00;6099083;19;20355;-79
2023/02/05 00:55:37;;;;;;;12.43;5.82;;;;;;;6.94;89.95;103941.69;6074044;19;20015;-78
2023/02/05 00:57:42;;;;;;;10.63;6.07;;;;;;;6.94;90.23;103934.75;6103342;19;20468;-78
2023/02/05 00:59:53;;;;;;;12.60;5.63;;;;;;;6.89;90.05;103935.47;6103453;19;20308;-77
2023/02/05 01:02:02;;;;;;;8.50;4.55;;;;;;;6.88;89.28;103934.59;6102871;19;20559;-79
2023/02/05 01:04:10;;;;;;;12.32;4.95;;;;;;;6.89;89.14;103931.13;6102792;19;20006;-79
2023/02/05 01:06:17;;;;;;;11.75;4.97;;;;;;;6.87;88.89;103931.94;6102252;19;20011;-78
2023/02/05 01:08:23;;;;;;;11.20;5.22;;;;;;;6.86;89.02;103948.47;6100655;19;20047;-78
2023/02/05 01:10:28;;;;;;;14.70;5.38;;;;;;;6.86;88.96;103940.63;6101094;19;20497;-78
2023/02/05 01:12:39;;;;;;;8.90;4.88;;;;;;;6.85;88.76;103939.75;6101749;19;20010;-78
2023/02/05 01:14:45;;;;;;;10.05;5.00;;;;;;;6.82;88.55;103945.78;6103252;19;20031;-79
2023/02/05 01:16:52;;;;;;;9.48;5.25;;;;;;;6.84;89.58;103952.78;6104280;19;20492;-79
2023/02/05 01:18:57;;;;;;;9.63;4.55;;;;;;;6.78;89.75;103935.22;6109338;19;20082;-78
2023/02/05 01:21:03;;;;;;;11.52;4.35;;;;;;;6.78;89.28;103938.69;6108524;19;20007;-79
2023/02/05 01:23:11;;;;;;;9.52;4.28;;;;;;;6.79;89.09;103942.19;6107586;19;20152;-79
2023/02/05 01:25:19;;;;;;;10.05;4.90;;;;;;;6.77;89.23;103941.31;6107630;19;20006;-80
2023/02/05 01:27:25;;;;;;;11.48;4.68;;;;;;;6.77;89.29;103941.31;6107303;19;20036;-78
2023/02/05 01:29:33;;;;;;;10.40;4.68;;;;;;;6.76;89.02;103940.38;6107632;19;20039;-79
2023/02/05 01:31:38;;;;;;;14.80;5.78;;;;;;;6.76;89.43;103931.66;6102315;19;20007;-79
2023/02/05 01:33:46;;;;;;;13.75;5.20;;;;;;;6.76;88.97;103943.00;6108525;19;20960;-79
2023/02/05 01:35:51;;;;;;;10.63;4.90;;;;;;;6.77;88.90;103954.38;6106696;19;20472;-78
2023/02/05 01:37:57;;;;;;;11.15;4.88;;;;;;;6.78;88.86;103962.22;6108294;19;20011;-78
2023/02/05 01:40:03;;;;;;;10.25;4.60;;;;;;;6.75;88.94;103951.69;6107645;19;20442;-78
2023/02/05 01:42:19;;;;;;;16.33;8.73;;;;;;;6.80;87.56;103952.72;6108645;19;20504;-78
2023/02/05 01:44:27;;;;;;;14.57;5.90;;;;;;;6.76;88.69;103955.19;6108666;19;20122;-77
2023/02/05 01:46:37;;;;;;;56.22;27.08;;;;;;;6.75;88.45;103943.84;6083573;19;20016;-77
2023/02/05 01:48:50;;;;;;;13.52;6.53;;;;;;;6.78;87.95;103943.94;6104416;19;20027;-79
2023/02/05 01:51:01;;;;;;;11.93;4.75;;;;;;;6.76;88.19;103929.06;6082846;19;20011;-79
2023/02/05 01:53:11;;;;;;;8.13;3.90;;;;;;;6.73;88.26;103928.97;6103003;19;20035;-79
2023/02/05 01:55:19;;;;;;;10.48;4.40;;;;;;;6.74;88.29;103930.75;6104465;19;20555;-78
2023/02/05 01:57:26;;;;;;;7.75;3.28;;;;;;;6.71;88.48;103926.31;6102822;19;20035;-78
2023/02/05 01:59:35;;;;;;;6.35;3.15;;;;;;;6.71;87.83;103915.88;6082871;19;20039;-78
2023/02/05 02:01:44;;;;;;;9.88;3.20;;;;;;;6.74;87.55;103917.66;6100400;19;20119;-78
2023/02/05 02:03:56;;;;;;;4.97;3.03;;;;;;;6.71;87.82;103930.66;6106190;19;20118;-78
2023/02/05 02:06:03;;;;;;;9.00;3.00;;;;;;;6.73;87.73;103926.38;6106519;19;20012;-77
2023/02/05 02:08:08;;;;;;;7.13;2.90;;;;;;;6.74;87.90;103930.75;6107453;19;20017;-78
2023/02/05 02:10:20;;;;;;;5.03;2.55;;;;;;;6.75;87.69;103922.06;6106996;19;20496;-77
2023/02/05 02:12:30;;;;;;;7.90;3.00;;;;;;;6.75;87.77;103899.44;6107089;19;20003;-78
2023/02/05 02:14:40;;;;;;;5.43;2.25;;;;;;;6.78;87.88;103898.63;6108166;19;20022;-79
2023/02/05 02:16:49;;;;;;;8.48;2.90;;;;;;;6.75;87.72;103893.31;6100278;19;20018;-76
2023/02/05 02:18:55;;;;;;;9.50;2.88;;;;;;;6.79;87.46;103893.44;6107978;19;20023;-78
2023/02/05 02:21:30;;;;;;;5.68;2.50;;;;;;;6.74;87.79;103882.00;6106816;19;20459;-79
2023/02/05 02:23:50;;;;;;;8.27;3.10;;;;;;;6.73;87.35;103876.72;6099341;19;20077;-78
2023/02/05 02:26:19;;;;;;;7.82;2.97;;;;;;;6.72;87.50;103875.84;6086391;19;20596;-79
2023/02/05 02:28:30;;;;;;;5.82;2.60;;;;;;;6.70;88.13;103867.06;6104914;19;20547;-79
2023/02/05 02:30:45;;;;;;;9.55;3.15;;;;;;;6.74;88.16;103857.56;6106287;19;20479;-79
2023/02/05 02:33:00;;;;;;;7.15;3.03;;;;;;;6.75;88.21;103856.75;6109719;19;20022;-79
2023/02/05 02:35:12;;;;;;;12.07;3.25;;;;;;;6.76;88.14;103855.88;6109435;19;20011;-78
2023/02/05 02:37:25;;;;;;;11.65;4.68;;;;;;;6.76;88.00;103856.75;6107188;19;20559;-78
2023/02/05 02:39:40;;;;;;;7.47;3.25;;;;;;;6.76;88.52;103851.53;6109005;19;20039;-79
2023/02/05 02:41:54;;;;;;;9.68;4.35;;;;;;;6.81;88.37;103859.47;6107505;19;20114;-77
2023/02/05 02:44:07;;;;;;;10.25;3.60;;;;;;;6.86;88.25;103872.66;6111575;19;20085;-79
2023/02/05 02:46:18;;;;;;;;;;;;;;;6.79;88.36;103851.63;6111808;19;20090;-78
2023/02/05 02:48:27;;;;;;;6.80;3.40;;;;;;;6.82;88.55;103846.47;6105963;19;19966;-78
2023/02/05 02:50:36;;;;;;;9.52;3.33;;;;;;;6.79;88.60;103851.63;6105188;19;20129;-78
2023/02/05 02:52:56;;;;;;;9.13;3.60;;;;;;;6.84;88.77;103858.66;6101787;19;20018;-79
2023/02/05 02:55:08;;;;;;;8.25;3.50;;;;;;;6.86;88.74;103862.22;6109238;19;20539;-82
2023/02/05 02:57:16;;;;;;;6.35;2.92;;;;;;;6.81;88.67;103878.66;6107663;19;20036;-79
2023/02/05 02:59:28;;;;;;;8.05;3.08;;;;;;;6.79;88.90;103869.00;6105323;19;20018;-79
2023/02/05 03:01:35;;;;;;;7.57;3.78;;;;;;;6.80;89.00;103876.91;6108380;19;20736;-79
2023/02/05 03:03:49;;;;;;;11.52;4.20;;;;;;;6.85;88.61;103863.94;6077666;19;20022;-77
2023/02/05 03:06:02;;;;;;;8.57;4.65;;;;;;;6.89;88.79;103857.94;6102647;19;22349;-78
2023/02/05 03:08:15;;;;;;;;;;;;;;;6.91;88.59;103858.84;6101756;19;20098;-78
2023/02/05 03:10:26;;;;;;;8.88;3.58;;;;;;;6.88;88.53;103865.75;6102911;19;19923;-78
2023/02/05 03:12:31;;;;;;;10.85;4.13;;;;;;;6.90;88.63;103866.66;6104317;19;20004;-79
2023/02/05 03:14:41;;;;;;;11.68;4.25;;;;;;;6.97;88.75;103876.41;6106187;19;20574;-79
2023/02/05 03:16:59;;;;;;;9.05;4.50;;;;;;;6.97;88.62;103887.75;6103207;19;20515;-78
2023/02/05 03:19:06;;;;;;;13.95;5.57;;;;;;;7.01;88.87;103886.09;6061070;19;20538;-78
2023/02/05 03:21:22;;;;;;;12.75;5.53;;;;;;;7.01;88.74;103883.50;6101557;19;20590;-77
2023/02/05 03:23:32;;;;;;;11.98;5.53;;;;;;;7.03;88.86;103887.91;6081789;19;20006;-78
2023/02/05 03:25:40;;;;;;;13.63;5.43;;;;;;;7.06;88.81;103881.88;6069699;19;20045;-78
2023/02/05 03:27:45;;;;;;;13.52;5.45;;;;;;;7.00;89.64;103882.63;6104904;19;20475;-79
2023/02/05 03:29:56;;;;;;;17.55;6.25;;;;;;;6.98;89.98;103880.81;6101097;19;20155;-79
2023/02/05 03:32:18;;;;;;;16.13;6.30;;;;;;;6.98;90.49;103883.44;6102621;19;20010;-80
2023/02/05 03:34:38;;;;;;;14.32;6.35;;;;;;;6.93;90.95;103896.38;6103939;19;20019;-78
2023/02/05 03:36:57;;;;;;;14.63;5.32;;;;;;;6.90;91.31;103879.72;6104679;19;20006;-78
2023/02/05 03:39:15;;;;;;;15.25;6.30;;;;;;;6.90;91.78;103892.78;6101745;19;20025;-77
2023/02/05 03:44:00;;;;;;;15.00;6.55;;;;;;;6.84;92.66;103885.69;6098696;19;20013;-76
2023/02/05 03:46:17;;;;;;;15.98;6.65;;;;;;;6.81;93.17;103885.63;6103836;19;20010;-75
2023/02/05 03:48:44;;;;;;;17.98;6.95;;;;;;;6.81;93.36;103880.41;6100632;19;20555;-77
2023/02/05 03:50:54;;;;;;;15.13;6.88;;;;;;;6.77;93.61;103873.34;6105128;19;20322;-76
2023/02/05 03:53:10;;;;;;;16.55;6.60;;;;;;;6.76;94.22;103877.66;6100582;19;20505;-77
2023/02/05 03:55:21;;;;;;;11.73;6.18;;;;;;;6.74;94.36;103881.09;6102908;19;20014;-78
2023/02/05 03:57:31;;;;;;;15.13;5.97;;;;;;;6.77;94.04;103892.50;6103961;19;20457;-76
2023/02/05 03:59:40;;;;;;;13.05;6.35;;;;;;;6.72;94.43;103895.88;6077505;19;20028;-75
2023/02/05 04:01:49;;;;;;;11.85;6.85;;;;;;;6.69;94.74;103901.00;6102653;19;20035;-76
2023/02/05 04:03:54;;;;;;;14.98;8.63;;;;;;;6.75;94.13;103898.56;6103966;19;22569;-75
2023/02/05 04:05:59;;;;;;;13.35;6.35;;;;;;;6.75;94.72;103903.78;6103582;19;20003;-76
2023/02/05 04:08:05;;;;;;;15.23;6.70;;;;;;;6.70;94.82;103911.50;6103209;19;20031;-76
2023/02/05 04:10:10;;;;;;;14.52;7.05;;;;;;;6.71;95.17;103904.53;6102127;19;20007;-78
2023/02/05 04:12:15;;;;;;;14.25;7.20;;;;;;;6.70;94.87;103900.16;6105279;19;20090;-77
2023/02/05 04:14:20;;;;;;;14.30;6.40;;;;;;;6.69;95.43;103906.22;6101637;19;20544;-77
2023/02/05 04:16:26;;;;;;;17.40;7.18;;;;;;;6.71;95.37;103913.25;6101748;19;20055;-77
2023/02/05 04:18:35;;;;;;;14.13;7.35;;;;;;;6.71;95.63;103908.03;6103769;19;20002;-77
2023/02/05 04:20:40;;;;;;;14.02;7.35;;;;;;;6.71;95.90;103909.75;6102038;19;20025;-77
2023/02/05 04:22:45;;;;;;;15.13;7.53;;;;;;;6.73;95.68;103913.31;6099696;19;20013;-76
2023/02/05 04:24:50;;;;;;;17.42;8.02;;;;;;;6.76;95.25;103911.63;6102694;19;20354;-81
2023/02/05 04:26:55;;;;;;;10.30;4.97;;;;;;;6.86;93.47;103911.88;6101889;19;20013;-76
2023/02/05 04:29:02;;;;;;;10.55;5.82;;;;;;;6.83;94.40;103925.75;6100960;19;20044;-78
2023/02/05 04:31:09;;;;;;;10.23;5.80;;;;;;;6.78;94.35;103914.31;6103545;19;20056;-77
2023/02/05 04:33:14;;;;;;;13.07;5.38;;;;;;;6.78;93.11;103917.78;6100782;19;20052;-78
2023/02/05 04:35:21;;;;;;;10.50;5.13;;;;;;;6.75;93.14;103922.94;6102238;19;20019;-75
2023/02/05 04:37:26;;;;;;;8.50;3.90;;;;;;;6.73;93.24;103936.81;6079876;19;20103;-79
2023/02/05 04:39:31;;;;;;;7.38;3.28;;;;;;;6.69;92.41;103921.91;6101464;19;20018;-77
2023/02/05 04:41:39;;;;;;;6.45;3.38;;;;;;;6.62;92.79;103920.00;6098476;19;20018;-75
2023/02/05 04:43:44;;;;;;;8.80;3.30;;;;;;;6.57;92.17;103925.97;6102873;19;20312;-78
2023/02/05 04:45:50;;;;;;;5.80;2.00;;;;;;;6.54;92.15;103948.53;6102624;19;20018;-76
2023/02/05 04:47:59;;;;;;;7.38;2.30;;;;;;;6.51;92.68;103953.69;6100032;19;20019;-77
2023/02/05 04:50:04;;;;;;;8.27;3.72;;;;;;;6.45;92.93;103954.41;6107462;19;20003;-77
2023/02/05 04:52:12;;;;;;;4.53;2.10;;;;;;;6.42;93.08;103964.75;6106289;19;20006;-75
2023/02/05 04:54:17;;;;;;;9.02;2.30;;;;;;;6.36;92.69;103964.59;6107577;19;20070;-75
2023/02/05 04:56:22;;;;;;;10.05;2.13;;;;;;;6.34;92.45;103959.31;6107382;19;20044;-74
2023/02/05 04:58:27;;;;;;;15.95;2.75;;;;;;;6.32;92.33;103961.03;6109470;19;20060;-75
2023/02/05 05:00:32;;;;;;;9.80;2.33;;;;;;;6.28;92.39;103977.44;6107538;19;20581;-74
2023/02/05 05:02:37;;;;;;;9.70;2.30;;;;;;;6.32;91.12;103979.31;6108915;19;20427;-78
2023/02/05 05:04:43;;;;;;;8.23;2.05;;;;;;;6.30;91.47;103974.88;6106134;19;20013;-77
2023/02/05 05:06:48;;;;;;;11.02;2.45;;;;;;;6.30;91.30;103982.72;6108255;19;20361;-76
2023/02/05 05:08:56;;;;;;;9.82;2.30;;;;;;;6.28;90.76;103987.88;6108462;19;20011;-76
2023/02/05 05:11:05;;;;;;;10.07;2.50;;;;;;;6.24;91.28;103982.53;6108110;19;20010;-74
2023/02/05 05:13:10;;;;;;;15.40;2.70;;;;;;;6.23;90.57;103991.22;6085613;19;20010;-80
2023/02/05 05:15:15;;;;;;;18.98;4.40;;;;;;;6.22;90.53;103994.69;6108508;19;20121;-81
2023/02/05 05:17:20;;;;;;;10.93;2.80;;;;;;;6.16;90.56;103997.97;6106608;19;20015;-75
2023/02/05 05:19:26;;;;;;;18.30;4.28;;;;;;;6.14;90.21;104004.91;6106526;19;20472;-76
2023/02/05 05:21:31;;;;;;;12.80;2.50;;;;;;;6.10;90.22;104009.13;6107359;19;20014;-75
2023/02/05 05:23:36;;;;;;;15.32;2.65;;;;;;;6.09;89.13;104023.03;6103858;19;20472;-76
2023/02/05 05:25:51;;;;;;;15.00;3.03;;;;;;;6.05;89.15;104015.06;6109338;19;20122;-76
2023/02/05 05:27:56;;;;;;;8.95;2.13;;;;;;;6.02;88.05;104020.22;6105220;19;20007;-75
2023/02/05 05:30:01;;;;;;;6.93;2.30;;;;;;;5.94;87.53;104018.25;6109859;19;20416;-75
2023/02/05 05:32:07;;;;;;;12.95;2.70;;;;;;;5.86;88.02;104013.59;6106489;19;20022;-74
2023/02/05 05:34:12;;;;;;;15.55;2.72;;;;;;;5.84;87.35;104017.88;6108361;19;20020;-80
2023/02/05 05:36:18;;;;;;;14.13;2.58;;;;;;;5.79;86.27;104016.88;6109370;19;20018;-80
2023/02/05 05:38:23;;;;;;;9.20;2.38;;;;;;;5.73;86.63;104028.00;6106875;19;20018;-74
2023/02/05 05:45:10;;;;;;;7.03;2.08;;;;;;;5.66;85.00;104020.81;6107905;19;20011;-78
2023/02/05 05:47:15;;;;;;;6.95;2.03;;;;;;;5.64;85.55;104023.41;6107667;19;20411;-76
2023/02/05 05:49:20;;;;;;;5.78;1.50;;;;;;;5.60;85.75;104015.41;6109121;19;20019;-75
2023/02/05 05:51:27;;;;;;;8.88;2.17;;;;;;;5.63;85.76;104024.22;6107259;19;20015;-75
2023/02/05 05:53:32;;;;;;;12.05;1.80;;;;;;;5.68;85.41;104032.19;6103618;19;20757;-74
2023/02/05 05:55:38;;;;;;;12.80;2.08;;;;;;;5.64;86.33;104031.22;6076875;19;20006;-76
2023/02/05 05:57:44;;;;;;;7.93;3.53;;;;;;;5.68;85.84;104006.97;6105748;19;20043;-75
2023/02/05 05:59:51;;;;;;;12.52;2.20;;;;;;;5.71;86.37;104033.19;6104739;19;20026;-78
2023/02/05 06:01:56;;;;;;;6.88;1.80;;;;;;;5.72;85.89;104048.00;6105663;19;20459;-77
2023/02/05 06:04:01;;;;;;;8.57;2.22;;;;;;;5.76;85.79;104042.88;6104071;19;20018;-81
2023/02/05 06:06:10;;;;;;;6.10;2.00;;;;;;;5.81;85.31;104044.78;6107005;19;20028;-77
2023/02/05 06:08:15;;;;;;;14.32;3.65;;;;;;;5.84;84.89;104041.38;6105989;19;20010;-78
2023/02/05 06:10:20;;;;;;;10.43;2.15;;;;;;;5.80;84.71;104035.19;6105868;19;20103;-77
2023/02/05 06:12:26;;;;;;;7.70;2.08;;;;;;;5.81;84.28;104042.16;6104345;19;20006;-73
2023/02/05 06:14:31;;;;;;;12.82;2.40;;;;;;;5.82;84.21;104038.75;6105913;19;20014;-81
2023/02/05 06:16:39;;;;;;;11.82;2.90;;;;;;;5.90;82.22;104054.63;6107409;19;20488;-80
2023/02/05 06:18:44;;;;;;;7.30;2.17;;;;;;;5.91;82.35;104057.28;6103043;19;20526;-79
2023/02/05 06:20:49;;;;;;;14.20;2.20;;;;;;;5.88;83.28;104064.13;6104951;19;20661;-79
2023/02/05 06:22:54;;;;;;;16.13;2.20;;;;;;;5.88;83.75;104074.59;6102497;19;20010;-78
2023/02/05 06:25:01;;;;;;;11.23;2.15;;;;;;;5.87;83.99;104072.78;6105317;19;20483;-78
2023/02/05 06:27:06;;;;;;;9.65;2.58;;;;;;;5.88;83.54;104077.19;6108507;19;20022;-80
2023/02/05 06:29:11;;;;;;;12.05;2.10;;;;;;;5.86;84.00;104086.69;6105661;19;20007;-79
2023/02/05 06:31:19;;;;;;;13.23;3.22;;;;;;;5.83;84.29;104076.16;6106356;19;20010;-80
2023/02/05 06:33:27;;;;;;;12.85;2.42;;;;;;;5.83;84.26;104086.59;6105007;19;20023;-76
2023/02/05 06:35:32;;;;;;;19.27;3.20;;;;;;;5.80;84.90;104089.13;6109051;19;20030;-80
2023/02/05 06:37:40;;;;;;;9.60;2.60;;;;;;;5.84;83.94;104088.34;6081409;19;20015;-79
2023/02/05 06:39:52;;;;;;;25.30;4.43;;;;;;;5.88;82.81;104100.69;6107263;19;20505;-77
2023/02/05 06:41:57;;;;;;;12.65;2.60;;;;;;;5.89;82.37;104110.28;6107748;19;20013;-77
2023/02/05 06:44:02;;;;;;;13.15;3.22;;;;;;;5.87;82.68;104125.91;6106326;19;20022;-77
2023/02/05 06:46:10;;;;;;;10.00;2.45;;;;;;;5.89;82.37;104121.59;6102598;19;20010;-78
2023/02/05 06:48:14;;;;;;;12.05;2.53;;;;;;;5.94;82.26;104125.25;6106024;19;20011;-77
2023/02/05 06:50:22;;;;;;;12.75;2.97;;;;;;;5.94;82.87;104129.59;6104703;19;20114;-75
2023/02/05 06:52:27;;;;;;;8.00;2.10;;;;;;;5.97;81.83;104132.31;6103200;19;21106;-75
2023/02/05 06:54:33;;;;;;;14.88;4.05;;;;;;;5.97;81.40;104129.69;6104613;19;20017;-75
2023/02/05 06:56:38;;;;;;;9.52;2.35;;;;;;;5.95;82.12;104126.19;6106180;19;20074;-79
2023/02/05 06:58:44;;;;;;;9.57;2.42;;;;;;;5.95;82.22;104134.00;6114586;19;20051;-84
2023/02/05 07:00:52;;;;;;;11.55;2.67;;;;;;;5.94;82.27;104133.09;6108471;19;20018;-76
2023/02/05 07:02:58;;;;;;;17.08;3.10;;;;;;;5.97;82.50;104140.13;6106266;19;20010;-77
2023/02/05 07:05:03;;;;;;;16.50;2.55;;;;;;;5.94;82.88;104138.31;6106327;19;20778;-75
2023/02/05 07:07:12;;;;;;;13.20;3.10;;;;;;;5.94;82.82;104147.88;6105180;19;20028;-75
2023/02/05 07:09:19;;;;;;;10.77;2.42;;;;;;;5.92;83.33;104162.56;6106051;19;20013;-75
2023/02/05 07:11:25;;;;;;;19.13;2.92;;;;;;;5.93;83.28;104159.13;6105400;19;20038;-76
2023/02/05 07:13:31;;;;;;;15.98;3.47;;;;;;;5.93;82.70;104170.50;6101203;19;20011;-76
2023/02/05 07:15:38;;;;;;;11.60;2.67;;;;;;;5.94;83.10;104180.09;6101146;19;20297;-78
2023/02/05 07:17:43;;;;;;;14.23;2.90;;;;;;;5.95;82.86;104178.38;6103071;19;20011;-77
2023/02/05 07:19:48;;;;;;;11.73;3.45;;;;;;;5.94;82.84;104185.31;6103069;19;20018;-76
2023/02/05 07:21:53;;;;;;;11.18;3.25;;;;;;;5.94;82.66;104184.44;6104673;19;20043;-80
2023/02/05 07:24:03;;;;;;;8.70;2.78;;;;;;;5.99;82.14;104187.19;6104457;19;20039;-76
2023/02/05 07:26:11;;;;;;;12.43;2.58;;;;;;;5.92;82.42;104197.41;6105571;19;20033;-80
2023/02/05 07:28:19;;;;;;;15.15;2.58;;;;;;;5.97;81.75;104205.41;6100972;19;20329;-76
2023/02/05 07:30:24;;;;;;;18.67;3.50;;;;;;;6.00;81.75;104220.28;6103635;19;20015;-76
2023/02/05 07:32:30;;;;;;;8.63;2.88;;;;;;;6.02;80.80;104213.41;6103232;19;20554;-77
2023/02/05 07:34:35;;;;;;;14.77;3.30;;;;;;;6.03;81.00;104218.69;6102583;19;20271;-75
2023/02/05 07:36:39;;;;;;;14.60;2.80;;;;;;;6.02;81.82;104223.84;6104521;19;20011;-75
2023/02/05 07:38:45;;;;;;;11.20;3.03;;;;;;;6.01;82.21;104222.97;6104132;19;20014;-77
2023/02/05 07:40:53;;;;;;;13.98;3.15;;;;;;;6.02;82.29;104218.63;6100776;19;20018;-77
2023/02/05 07:42:59;;;;;;;17.95;3.38;;;;;;;6.00;82.71;104230.72;6095588;19;20018;-78
2023/02/05 07:45:04;;;;;;;16.02;3.25;;;;;;;6.00;83.18;104225.50;6087508;19;20006;-75
2023/02/05 07:47:09;;;;;;;10.82;2.92;;;;;;;6.04;82.69;104232.63;6098651;19;20362;-79
2023/02/05 07:49:14;;;;;;;13.45;2.58;;;;;;;6.07;81.72;104237.94;6101400;19;20637;-79
2023/02/05 07:51:21;;;;;;;14.35;2.70;;;;;;;6.06;82.40;104236.16;6094999;19;20414;-77
2023/02/05 07:53:29;;;;;;;14.85;2.90;;;;;;;6.09;82.28;104239.75;6100197;19;20073;-77
2023/02/05 07:55:36;;;;;;;16.40;2.58;;;;;;;6.11;82.24;104230.25;6100004;19;20019;-76
2023/02/05 07:57:45;;;;;;;14.60;3.15;;;;;;;6.09;81.79;104234.53;6080959;19;20059;-80
2023/02/05 07:59:50;;;;;;;20.17;4.38;;;;;;;6.13;81.30;104240.72;6099827;19;20078;-79
2023/02/05 08:01:56;;;;;;;12.95;3.40;;;;;;;6.14;81.40;104251.25;6095298;19;20090;-78
2023/02/05 08:04:01;;;;;;;15.80;3.88;;;;;;;6.20;81.44;104236.59;6080848;19;20078;-78
2023/02/05 08:06:10;;;;;;;21.45;3.85;;;;;;;6.22;80.95;104248.88;6093791;19;20396;-76
2023/02/05 08:08:15;;;;;;;14.70;3.55;;;;;;;6.25;80.89;104250.69;6104837;19;20568;-75
2023/02/05 08:10:20;;;;;;;13.25;3.10;;;;;;;6.28;80.23;104249.06;6098309;19;20085;-79
2023/02/05 08:12:26;;;;;;;24.55;4.05;;;;;;;6.33;80.28;104246.63;6094294;19;20021;-78
2023/02/05 08:14:33;;;;;;;18.02;3.97;;;;;;;6.35;79.37;104248.44;6097255;19;20015;-74
2023/02/05 08:16:39;;;;;;;15.45;3.42;;;;;;;6.38;79.31;104263.31;6093853;19;20559;-79
2023/02/05 08:18:45;;;;;;;16.23;3.35;;;;;;;6.36;79.75;104260.66;6103643;19;20461;-79
2023/02/05 08:20:53;;;;;;;14.23;3.15;;;;;;;6.35;80.41;104258.88;6096795;19;20018;-79
2023/02/05 08:23:03;;;;;;;24.20;3.30;;;;;;;6.36;79.50;104252.81;6100830;19;20007;-77
2023/02/05 08:25:11;;;;;;;23.77;4.65;;;;;;;6.37;78.81;104271.97;6090387;19;20013;-76
2023/02/05 08:27:17;;;;;;;26.27;4.68;;;;;;;6.36;79.46;104260.66;6109294;19;20089;-78
2023/02/05 08:29:22;;;;;;;21.85;4.20;;;;;;;6.37;79.75;104261.53;6109094;19;20072;-77
2023/02/05 08:31:33;;;;;;;23.10;4.45;;;;;;;6.34;79.70;104258.81;6089024;19;20032;-77
2023/02/05 08:33:40;;;;;;;18.55;4.20;;;;;;;6.40;79.02;104261.66;6101854;19;20078;-80
2023/02/05 08:35:48;;;;;;;24.73;4.78;;;;;;;6.44;79.05;104273.94;6105386;19;20378;-77
2023/02/05 08:37:53;;;;;;;16.98;4.72;;;;;;;6.45;79.48;104273.13;6114774;19;20014;-78
2023/02/05 08:39:59;;;;;;;14.75;3.90;;;;;;;6.48;79.11;104294.13;6110304;19;20158;-79
2023/02/05 08:42:05;;;;;;;26.50;3.70;;;;;;;6.48;78.99;104293.25;6112352;19;20014;-76
2023/02/05 08:44:10;;;;;;;22.65;5.60;;;;;;;6.46;78.59;104287.97;6102475;19;20511;-76
2023/02/05 08:46:18;;;;;;;15.20;3.70;;;;;;;6.51;79.30;104278.53;6112712;19;20366;-77
2023/02/05 08:48:26;;;;;;;18.63;4.53;;;;;;;6.53;78.79;104292.56;6111205;19;20018;-77
2023/02/05 08:50:31;;;;;;;25.58;3.70;;;;;;;6.58;79.09;104295.28;6090966;19;20010;-79
2023/02/05 08:52:39;;;;;;;21.55;3.78;;;;;;;6.58;78.80;104295.28;6089633;19;20048;-79
2023/02/05 08:54:44;;;;;;;16.60;3.95;;;;;;;6.58;78.84;104310.97;6098847;19;20367;-77
2023/02/05 08:56:52;;;;;;;25.30;5.78;;;;;;;6.56;78.77;104310.94;6113209;19;20211;-76
2023/02/05 08:58:58;;;;;;;20.35;4.93;;;;;;;6.58;78.48;104317.09;6104782;19;20018;-81
2023/02/05 09:01:04;;;;;;;21.33;5.10;;;;;;;6.56;78.55;104321.38;6095051;19;20018;-78
2023/02/05 09:03:10;;;;;;;18.10;3.47;;;;;;;6.56;78.01;104323.13;6100681;19;20021;-80
2023/02/05 09:05:18;;;;;;;17.55;3.08;;;;;;;6.59;78.25;104324.09;6086000;19;20010;-79
2023/02/05 09:07:23;;;;;;;17.40;5.57;;;;;;;6.66;78.05;104308.59;6109851;19;20011;-80
2023/02/05 09:09:30;;;;;;;23.40;5.35;;;;;;;6.70;77.87;104310.47;6110642;19;20021;-78
2023/02/05 09:11:35;;;;;;;18.05;3.92;;;;;;;6.66;78.01;104312.13;6108163;19;20035;-75
2023/02/05 09:13:41;;;;;;;19.40;4.10;;;;;;;6.69;77.94;104308.69;6108178;19;20559;-79
2023/02/05 09:15:49;;;;;;;21.33;4.38;;;;;;;6.68;78.50;104313.03;6087805;19;20452;-80
2023/02/05 09:17:54;;;;;;;22.58;5.18;;;;;;;6.67;77.98;104319.13;6102869;19;20349;-80
2023/02/05 09:20:00;;;;;;;28.52;5.05;;;;;;;6.67;78.31;104313.88;6098087;19;20002;-77
2023/02/05 09:22:10;;;;;;;23.05;5.03;;;;;;;6.66;77.44;104305.97;6101407;19;20003;-77
2023/02/05 09:24:16;;;;;;;20.63;5.28;;;;;;;6.66;77.92;104309.50;6107537;19;20539;-76
2023/02/05 09:26:22;;;;;;;21.88;4.07;;;;;;;6.73;78.20;104300.13;6109539;19;20139;-76
2023/02/05 09:28:35;;;;;;;26.77;4.07;;;;;;;6.72;77.68;104285.28;6084648;19;20023;-79
2023/02/05 09:30:43;;;;;;;26.23;5.63;;;;;;;6.76;77.43;104293.25;6102720;19;20034;-79
2023/02/05 09:32:53;;;;;;;25.92;4.18;;;;;;;6.74;76.33;104275.75;6109125;19;20505;-79
2023/02/05 09:34:58;;;;;;;12.13;2.95;;;;;;;6.78;77.08;104277.63;6107159;19;20010;-79
2023/02/05 09:37:06;;;;;;;22.20;3.97;;;;;;;6.77;77.25;104281.97;6100738;19;20018;-75
2023/02/05 09:39:15;;;;;;;22.77;4.35;;;;;;;6.78;77.46;104298.53;6101316;19;20023;-78
2023/02/05 09:41:51;;;;;;;25.42;4.60;;;;;;;6.79;77.55;104306.44;6085262;19;20011;-81
2023/02/05 09:44:02;;;;;;;20.50;4.30;;;;;;;6.84;77.49;104317.00;6107339;19;20014;-78
2023/02/05 09:46:13;;;;;;;20.92;4.35;;;;;;;6.84;77.48;104296.09;6106513;19;20077;-78
2023/02/05 09:48:51;;;;;;;24.50;4.20;;;;;;;6.93;78.16;104278.09;6099780;19;20014;-77
2023/02/05 09:51:00;;;;;;;21.48;4.10;;;;;;;6.95;77.04;104280.72;6106713;19;20015;-77
2023/02/05 09:53:14;;;;;;;20.27;4.55;;;;;;;6.98;77.22;104302.66;6097425;19;20591;-75
2023/02/05 09:55:26;;;;;;;23.83;5.22;;;;;;;7.08;77.12;104292.44;6106270;19;21390;-80
2023/02/05 09:57:35;;;;;;;19.77;4.18;;;;;;;7.26;75.57;104303.44;6104916;19;20036;-81
2023/02/05 09:59:47;;;;;;;22.98;4.82;;;;;;;7.13;75.37;104307.44;6103885;19;20114;-76
2023/02/05 10:01:55;;;;;;;26.05;4.38;;;;;;;7.19;75.73;104306.75;6105901;19;20056;-77
2023/02/05 10:04:07;;;;;;;22.75;4.50;;;;;;;7.25;75.90;104333.09;6084999;19;20013;-81